Terminal Aerodrome Forecast
Issued by NWS Quad Cities IA IL

Home | Current Version | Previous Version | Text Only | Print | Product List | Glossary On
Versions: 1 2 3 4 5 6 7 8 9 10 11 12 13 14 15 16 17 18 19
000
FTUS43 KDVN 151849 CCA
TAFMLI
TAF COR
KMLI 151849Z 1518/1618 33007KT 6SM BR SCT010 BKN100
      TEMPO 1518/1520 4SM BR SCT005 BKN025
     FM152000 33008KT P6SM BKN100
     FM160400 32014G20KT P6SM BKN025
     FM161300 32012KT P6SM SKC=

USA.gov is the U.S. government's official web portal to all federal, state and local government web resources and services.